sensor_id;sensor_type;location;lat;lon;timestamp;pressure;altitude;pressure_sealevel;temperature;humidity
47430;BME280;33181;49.246;7.372;2023-02-20T00:01:27;99984.22;;;7.49;88.24
47430;BME280;33181;49.246;7.372;2023-02-20T00:03:54;99984.34;;;7.46;88.58
47430;BME280;33181;49.246;7.372;2023-02-20T00:06:19;99987.97;;;7.43;88.87
47430;BME280;33181;49.246;7.372;2023-02-20T00:08:45;99983.50;;;7.45;88.71
47430;BME280;33181;49.246;7.372;2023-02-20T00:11:11;99991.50;;;7.42;88.22
47430;BME280;33181;49.246;7.372;2023-02-20T00:13:37;99974.97;;;7.41;88.42
47430;BME280;33181;49.246;7.372;2023-02-20T00:16:03;99976.25;;;7.33;88.66
47430;BME280;33181;49.246;7.372;2023-02-20T00:18:29;99984.25;;;7.30;89.04
47430;BME280;33181;49.246;7.372;2023-02-20T00:20:55;99976.69;;;7.24;88.80
47430;BME280;33181;49.246;7.372;2023-02-20T00:23:21;99984.47;;;7.25;88.84
47430;BME280;33181;49.246;7.372;2023-02-20T00:25:46;99992.31;;;7.25;88.83
47430;BME280;33181;49.246;7.372;2023-02-20T00:28:12;99993.22;;;7.24;88.47
47430;BME280;33181;49.246;7.372;2023-02-20T00:30:38;99995.97;;;7.21;88.28
47430;BME280;33181;49.246;7.372;2023-02-20T00:33:04;100005.56;;;7.20;88.25
47430;BME280;33181;49.246;7.372;2023-02-20T00:35:30;100002.25;;;7.17;88.06
47430;BME280;33181;49.246;7.372;2023-02-20T00:37:56;100001.41;;;6.97;88.45
47430;BME280;33181;49.246;7.372;2023-02-20T00:40:24;100003.09;;;6.80;89.01
47430;BME280;33181;49.246;7.372;2023-02-20T00:42:50;99998.44;;;6.86;89.25
47430;BME280;33181;49.246;7.372;2023-02-20T00:45:17;99992.88;;;6.75;89.46
47430;BME280;33181;49.246;7.372;2023-02-20T00:47:43;99987.00;;;6.70;89.99
47430;BME280;33181;49.246;7.372;2023-02-20T00:50:12;99994.97;;;6.67;90.20
47430;BME280;33181;49.246;7.372;2023-02-20T00:52:38;99985.34;;;6.67;90.37
47430;BME280;33181;49.246;7.372;2023-02-20T00:55:04;99984.00;;;6.59;90.86
47430;BME280;33181;49.246;7.372;2023-02-20T00:57:30;99986.75;;;6.56;91.34
47430;BME280;33181;49.246;7.372;2023-02-20T00:59:56;99980.63;;;6.57;91.54
47430;BME280;33181;49.246;7.372;2023-02-20T01:02:22;99986.59;;;6.59;91.20
47430;BME280;33181;49.246;7.372;2023-02-20T01:04:48;99985.84;;;6.57;91.16
47430;BME280;33181;49.246;7.372;2023-02-20T01:07:14;99990.13;;;6.58;90.83
47430;BME280;33181;49.246;7.372;2023-02-20T01:09:40;99993.69;;;6.57;90.95
47430;BME280;33181;49.246;7.372;2023-02-20T01:12:06;99995.50;;;6.55;90.82
47430;BME280;33181;49.246;7.372;2023-02-20T01:14:32;99994.78;;;6.51;90.45
47430;BME280;33181;49.246;7.372;2023-02-20T01:16:57;99998.38;;;6.48;90.30
47430;BME280;33181;49.246;7.372;2023-02-20T01:19:23;99994.22;;;6.44;90.58
47430;BME280;33181;49.246;7.372;2023-02-20T01:21:50;99983.91;;;6.41;90.28
47430;BME280;33181;49.246;7.372;2023-02-20T01:24:17;99989.47;;;6.34;90.54
47430;BME280;33181;49.246;7.372;2023-02-20T01:26:44;99981.03;;;6.27;90.44
47430;BME280;33181;49.246;7.372;2023-02-20T01:29:11;99978.56;;;6.24;90.74
47430;BME280;33181;49.246;7.372;2023-02-20T01:31:37;99978.56;;;6.24;90.73
47430;BME280;33181;49.246;7.372;2023-02-20T01:34:04;99969.97;;;6.22;91.24
47430;BME280;33181;49.246;7.372;2023-02-20T01:36:30;99964.75;;;6.22;91.89
47430;BME280;33181;49.246;7.372;2023-02-20T01:38:56;99970.16;;;6.17;91.61
47430;BME280;33181;49.246;7.372;2023-02-20T01:41:23;99966.56;;;6.20;92.23
47430;BME280;33181;49.246;7.372;2023-02-20T01:43:50;99976.28;;;6.16;92.38
47430;BME280;33181;49.246;7.372;2023-02-20T01:49:09;99973.16;;;6.08;92.08
47430;BME280;33181;49.246;7.372;2023-02-20T01:51:40;99967.09;;;6.08;92.27
47430;BME280;33181;49.246;7.372;2023-02-20T01:54:12;99971.72;;;6.01;92.57
47430;BME280;33181;49.246;7.372;2023-02-20T01:56:39;99958.63;;;6.02;93.65
47430;BME280;33181;49.246;7.372;2023-02-20T01:59:06;99965.78;;;5.97;93.42
47430;BME280;33181;49.246;7.372;2023-02-20T02:01:33;99967.69;;;5.94;93.84
47430;BME280;33181;49.246;7.372;2023-02-20T02:04:02;99972.81;;;5.95;93.87
47430;BME280;33181;49.246;7.372;2023-02-20T02:06:31;99966.00;;;5.93;93.95
47430;BME280;33181;49.246;7.372;2023-02-20T02:09:04;99967.59;;;5.95;94.52
47430;BME280;33181;49.246;7.372;2023-02-20T02:11:32;99964.09;;;5.96;94.34
47430;BME280;33181;49.246;7.372;2023-02-20T02:13:58;99962.47;;;5.94;94.43
47430;BME280;33181;49.246;7.372;2023-02-20T02:16:43;99953.06;;;5.90;94.45
47430;BME280;33181;49.246;7.372;2023-02-20T02:25:58;99962.97;;;5.80;93.91
47430;BME280;33181;49.246;7.372;2023-02-20T02:40:27;99954.91;;;5.66;94.00
47430;BME280;33181;49.246;7.372;2023-02-20T02:46:09;99954.09;;;5.64;94.51
47430;BME280;33181;49.246;7.372;2023-02-20T02:48:51;99941.91;;;5.64;94.47
47430;BME280;33181;49.246;7.372;2023-02-20T02:51:24;99944.00;;;5.56;94.54
47430;BME280;33181;49.246;7.372;2023-02-20T02:54:12;99945.78;;;5.55;94.60
47430;BME280;33181;49.246;7.372;2023-02-20T02:56:45;99940.59;;;5.54;94.32
47430;BME280;33181;49.246;7.372;2023-02-20T02:59:27;99940.34;;;5.40;94.72
47430;BME280;33181;49.246;7.372;2023-02-20T03:02:04;99940.50;;;5.35;95.11
47430;BME280;33181;49.246;7.372;2023-02-20T03:04:35;99935.41;;;5.32;95.77
47430;BME280;33181;49.246;7.372;2023-02-20T03:07:10;99934.44;;;5.34;95.99
47430;BME280;33181;49.246;7.372;2023-02-20T03:09:44;99939.53;;;5.38;95.90
47430;BME280;33181;49.246;7.372;2023-02-20T03:12:12;99945.34;;;5.44;96.27
47430;BME280;33181;49.246;7.372;2023-02-20T03:15:02;99941.91;;;5.44;96.50
47430;BME280;33181;49.246;7.372;2023-02-20T03:20:47;99939.50;;;5.39;97.79
47430;BME280;33181;49.246;7.372;2023-02-20T03:23:27;99941.19;;;5.40;97.90
47430;BME280;33181;49.246;7.372;2023-02-20T03:26:15;99928.16;;;5.40;97.75
47430;BME280;33181;49.246;7.372;2023-02-20T03:29:00;99923.91;;;5.38;98.27
47430;BME280;33181;49.246;7.372;2023-02-20T03:31:53;99923.84;;;5.39;97.96
47430;BME280;33181;49.246;7.372;2023-02-20T03:34:39;99937.06;;;5.34;97.71
47430;BME280;33181;49.246;7.372;2023-02-20T03:37:26;99933.53;;;5.35;97.54
47430;BME280;33181;49.246;7.372;2023-02-20T03:40:15;99920.63;;;5.32;97.08
47430;BME280;33181;49.246;7.372;2023-02-20T03:43:08;99935.28;;;5.35;96.87
47430;BME280;33181;49.246;7.372;2023-02-20T03:46:08;99935.41;;;5.32;96.34
47430;BME280;33181;49.246;7.372;2023-02-20T03:48:57;99939.97;;;5.27;96.89
47430;BME280;33181;49.246;7.372;2023-02-20T03:51:23;99927.00;;;5.25;96.70
47430;BME280;33181;49.246;7.372;2023-02-20T03:53:49;99934.88;;;5.24;96.58
47430;BME280;33181;49.246;7.372;2023-02-20T03:56:22;99935.66;;;5.26;96.26
47430;BME280;33181;49.246;7.372;2023-02-20T03:58:57;99934.75;;;5.27;96.33
47430;BME280;33181;49.246;7.372;2023-02-20T04:01:27;99934.88;;;5.24;96.82
47430;BME280;33181;49.246;7.372;2023-02-20T04:03:55;99938.38;;;5.23;97.12
47430;BME280;33181;49.246;7.372;2023-02-20T04:06:26;99941.84;;;5.23;97.77
47430;BME280;33181;49.246;7.372;2023-02-20T04:09:06;99929.56;;;5.27;99.02
47430;BME280;33181;49.246;7.372;2023-02-20T04:11:51;99931.44;;;5.23;98.59
47430;BME280;33181;49.246;7.372;2023-02-20T04:14:21;99927.19;;;5.21;98.97
47430;BME280;33181;49.246;7.372;2023-02-20T04:16:57;99927.00;;;5.25;99.48
47430;BME280;33181;49.246;7.372;2023-02-20T04:19:25;99927.59;;;5.32;99.31
47430;BME280;33181;49.246;7.372;2023-02-20T04:21:59;99926.94;;;5.27;98.99
47430;BME280;33181;49.246;7.372;2023-02-20T04:27:08;99930.88;;;5.37;99.36
47430;BME280;33181;49.246;7.372;2023-02-20T04:29:35;99921.38;;;5.36;99.43
47430;BME280;33181;49.246;7.372;2023-02-20T04:32:01;99924.88;;;5.35;99.27
47430;BME280;33181;49.246;7.372;2023-02-20T04:34:27;99936.13;;;5.35;98.94
47430;BME280;33181;49.246;7.372;2023-02-20T04:37:08;99935.53;;;5.29;99.33
47430;BME280;33181;49.246;7.372;2023-02-20T04:39:35;99935.53;;;5.29;99.26
47430;BME280;33181;49.246;7.372;2023-02-20T04:42:01;99927.66;;;5.30;99.34
47430;BME280;33181;49.246;7.372;2023-02-20T04:44:27;99933.13;;;5.24;98.69
47430;BME280;33181;49.246;7.372;2023-02-20T04:46:57;99936.81;;;5.19;99.32
47430;BME280;33181;49.246;7.372;2023-02-20T04:49:23;99935.84;;;5.21;99.63
47430;BME280;33181;49.246;7.372;2023-02-20T04:51:49;99934.81;;;5.25;100.00
47430;BME280;33181;49.246;7.372;2023-02-20T04:54:15;99926.06;;;5.26;99.81
47430;BME280;33181;49.246;7.372;2023-02-20T04:56:40;99934.56;;;5.31;99.36
47430;BME280;33181;49.246;7.372;2023-02-20T04:59:06;99931.16;;;5.29;99.52
47430;BME280;33181;49.246;7.372;2023-02-20T05:01:32;99931.03;;;5.32;98.86
47430;BME280;33181;49.246;7.372;2023-02-20T05:03:58;99929.56;;;5.27;98.98
47430;BME280;33181;49.246;7.372;2023-02-20T05:06:24;99931.44;;;5.23;98.77
47430;BME280;33181;49.246;7.372;2023-02-20T05:08:50;99930.81;;;5.17;98.89
47430;BME280;33181;49.246;7.372;2023-02-20T05:11:16;99919.66;;;5.13;98.96
47430;BME280;33181;49.246;7.372;2023-02-20T05:13:42;99913.97;;;5.03;99.13
47430;BME280;33181;49.246;7.372;2023-02-20T05:16:07;99910.47;;;5.04;98.74
47430;BME280;33181;49.246;7.372;2023-02-20T05:18:34;99912.03;;;5.08;98.87
47430;BME280;33181;49.246;7.372;2023-02-20T05:20:59;99911.19;;;5.08;97.80
47430;BME280;33181;49.246;7.372;2023-02-20T05:23:47;99910.28;;;5.09;98.09
47430;BME280;33181;49.246;7.372;2023-02-20T05:26:19;99908.03;;;5.00;98.35
47430;BME280;33181;49.246;7.372;2023-02-20T05:28:45;99905.50;;;4.98;98.15
47430;BME280;33181;49.246;7.372;2023-02-20T05:31:11;99907.31;;;4.96;98.46
47430;BME280;33181;49.246;7.372;2023-02-20T05:33:37;99900.44;;;4.95;99.20
47430;BME280;33181;49.246;7.372;2023-02-20T05:36:05;99903.06;;;4.94;99.10
47430;BME280;33181;49.246;7.372;2023-02-20T05:38:32;99900.66;;;4.89;99.63
47430;BME280;33181;49.246;7.372;2023-02-20T05:40:57;99904.03;;;4.91;99.86
47430;BME280;33181;49.246;7.372;2023-02-20T05:43:23;99902.47;;;4.87;99.45
47430;BME280;33181;49.246;7.372;2023-02-20T05:45:49;99907.66;;;4.87;99.93
47430;BME280;33181;49.246;7.372;2023-02-20T05:48:15;99905.88;;;4.89;99.94
47430;BME280;33181;49.246;7.372;2023-02-20T05:50:41;99909.44;;;4.86;99.12
47430;BME280;33181;49.246;7.372;2023-02-20T05:53:07;99904.81;;;4.71;99.93
47430;BME280;33181;49.246;7.372;2023-02-20T05:55:32;99905.38;;;4.79;99.88
47430;BME280;33181;49.246;7.372;2023-02-20T05:57:58;99909.09;;;4.72;99.30
47430;BME280;33181;49.246;7.372;2023-02-20T06:00:27;99913.53;;;4.70;99.07
47430;BME280;33181;49.246;7.372;2023-02-20T06:02:53;99904.00;;;4.69;98.87
47430;BME280;33181;49.246;7.372;2023-02-20T06:05:19;99906.72;;;4.66;97.96
47430;BME280;33181;49.246;7.372;2023-02-20T06:07:46;99906.84;;;4.63;97.13
47430;BME280;33181;49.246;7.372;2023-02-20T06:10:13;99905.16;;;4.62;97.48
47430;BME280;33181;49.246;7.372;2023-02-20T06:12:39;99907.94;;;4.57;96.78
47430;BME280;33181;49.246;7.372;2023-02-20T06:15:05;99912.38;;;4.54;96.46
47430;BME280;33181;49.246;7.372;2023-02-20T06:17:31;99902.72;;;4.34;97.13
47430;BME280;33181;49.246;7.372;2023-02-20T06:19:57;99901.91;;;4.32;96.29
47430;BME280;33181;49.246;7.372;2023-02-20T06:22:23;99900.41;;;4.26;96.96
47430;BME280;33181;49.246;7.372;2023-02-20T06:24:49;99904.75;;;4.26;97.08
47430;BME280;33181;49.246;7.372;2023-02-20T06:27:16;99914.47;;;4.21;97.26
47430;BME280;33181;49.246;7.372;2023-02-20T06:29:42;99913.53;;;4.23;97.17
47430;BME280;33181;49.246;7.372;2023-02-20T06:32:08;99916.22;;;4.20;96.35
47430;BME280;33181;49.246;7.372;2023-02-20T06:34:34;99913.84;;;4.14;96.91
47430;BME280;33181;49.246;7.372;2023-02-20T06:37:01;99914.63;;;4.16;96.40
47430;BME280;33181;49.246;7.372;2023-02-20T06:39:28;99911.19;;;4.15;96.32
47430;BME280;33181;49.246;7.372;2023-02-20T06:41:54;99915.72;;;4.10;96.18
47430;BME280;33181;49.246;7.372;2023-02-20T06:44:21;99915.00;;;4.05;95.83
47430;BME280;33181;49.246;7.372;2023-02-20T06:46:47;99915.75;;;4.09;96.11
47430;BME280;33181;49.246;7.372;2023-02-20T06:49:13;99916.47;;;4.12;95.81
47430;BME280;33181;49.246;7.372;2023-02-20T06:51:40;99919.19;;;4.09;95.74
47430;BME280;33181;49.246;7.372;2023-02-20T06:54:06;99920.06;;;4.10;95.24
47430;BME280;33181;49.246;7.372;2023-02-20T06:56:35;99924.28;;;4.12;95.44
47430;BME280;33181;49.246;7.372;2023-02-20T06:59:04;99930.34;;;4.13;95.40
47430;BME280;33181;49.246;7.372;2023-02-20T07:01:38;99937.03;;;4.20;95.55
47430;BME280;33181;49.246;7.372;2023-02-20T07:04:06;99934.09;;;4.29;96.03
47430;BME280;33181;49.246;7.372;2023-02-20T07:06:32;99924.22;;;4.39;96.84
47430;BME280;33181;49.246;7.372;2023-02-20T07:08:57;99930.38;;;4.60;97.88
47430;BME280;33181;49.246;7.372;2023-02-20T07:11:23;99929.91;;;4.72;98.59
47430;BME280;33181;49.246;7.372;2023-02-20T07:13:50;99931.31;;;4.81;99.28
47430;BME280;33181;49.246;7.372;2023-02-20T07:16:16;99939.81;;;4.86;99.14
47430;BME280;33181;49.246;7.372;2023-02-20T07:18:42;99928.25;;;4.93;99.27
47430;BME280;33181;49.246;7.372;2023-02-20T07:21:08;99934.16;;;4.98;99.44
47430;BME280;33181;49.246;7.372;2023-02-20T07:23:34;99937.59;;;4.99;99.15
47430;BME280;33181;49.246;7.372;2023-02-20T07:26:00;99937.75;;;4.94;99.34
47430;BME280;33181;49.246;7.372;2023-02-20T07:28:26;99945.22;;;5.03;99.71
47430;BME280;33181;49.246;7.372;2023-02-20T07:30:51;99948.16;;;5.18;98.72
47430;BME280;33181;49.246;7.372;2023-02-20T07:33:17;99946.88;;;5.28;98.87
47430;BME280;33181;49.246;7.372;2023-02-20T07:35:44;99950.75;;;5.40;98.90
47430;BME280;33181;49.246;7.372;2023-02-20T07:38:10;99949.72;;;5.44;98.63
47430;BME280;33181;49.246;7.372;2023-02-20T07:40:36;99949.75;;;5.42;97.59
47430;BME280;33181;49.246;7.372;2023-02-20T07:43:02;99946.06;;;5.48;98.43
47430;BME280;33181;49.246;7.372;2023-02-20T07:45:28;99946.75;;;5.53;98.25
47430;BME280;33181;49.246;7.372;2023-02-20T07:47:54;99950.75;;;5.62;98.71
47430;BME280;33181;49.246;7.372;2023-02-20T07:50:20;99951.13;;;5.73;97.93
47430;BME280;33181;49.246;7.372;2023-02-20T07:52:48;99951.00;;;5.76;96.81
47430;BME280;33181;49.246;7.372;2023-02-20T07:55:22;99941.25;;;5.81;96.39
47430;BME280;33181;49.246;7.372;2023-02-20T07:57:48;99943.75;;;5.82;96.29
47430;BME280;33181;49.246;7.372;2023-02-20T08:00:17;99948.25;;;5.79;95.93
47430;BME280;33181;49.246;7.372;2023-02-20T08:02:45;99940.31;;;5.82;96.86
47430;BME280;33181;49.246;7.372;2023-02-20T08:05:13;99936.41;;;5.92;96.50
47430;BME280;33181;49.246;7.372;2023-02-20T08:07:44;99942.22;;;5.99;96.30
47430;BME280;33181;49.246;7.372;2023-02-20T08:10:10;99948.06;;;6.06;95.25
47430;BME280;33181;49.246;7.372;2023-02-20T08:12:36;99945.72;;;5.99;95.54
47430;BME280;33181;49.246;7.372;2023-02-20T08:15:01;99952.34;;;6.07;95.34
47430;BME280;33181;49.246;7.372;2023-02-20T08:17:27;99949.16;;;6.00;96.21
47430;BME280;33181;49.246;7.372;2023-02-20T08:19:54;99951.16;;;6.14;96.41
47430;BME280;33181;49.246;7.372;2023-02-20T08:22:20;99950.91;;;6.20;95.98
47430;BME280;33181;49.246;7.372;2023-02-20T08:24:46;99947.47;;;6.19;96.28
47430;BME280;33181;49.246;7.372;2023-02-20T08:27:11;99954.03;;;6.28;95.86
47430;BME280;33181;49.246;7.372;2023-02-20T08:29:37;99948.25;;;6.21;95.96
47430;BME280;33181;49.246;7.372;2023-02-20T08:32:03;99951.94;;;6.36;95.64
47430;BME280;33181;49.246;7.372;2023-02-20T08:34:29;99950.63;;;6.46;95.60
47430;BME280;33181;49.246;7.372;2023-02-20T08:36:55;99943.16;;;6.58;95.80
47430;BME280;33181;49.246;7.372;2023-02-20T08:39:21;99942.97;;;6.62;94.96
47430;BME280;33181;49.246;7.372;2023-02-20T08:41:47;99935.75;;;6.67;94.19
47430;BME280;33181;49.246;7.372;2023-02-20T08:44:13;99936.19;;;6.77;93.15
47430;BME280;33181;49.246;7.372;2023-02-20T08:46:48;99939.63;;;6.78;93.02
47430;BME280;33181;49.246;7.372;2023-02-20T08:49:15;99938.78;;;6.77;93.15
47430;BME280;33181;49.246;7.372;2023-02-20T08:51:47;99937.75;;;6.81;94.44
47430;BME280;33181;49.246;7.372;2023-02-20T08:54:14;99928.41;;;6.94;93.38
47430;BME280;33181;49.246;7.372;2023-02-20T08:56:42;99931.78;;;6.96;92.96
47430;BME280;33181;49.246;7.372;2023-02-20T08:59:08;99927.22;;;7.02;93.46
47430;BME280;33181;49.246;7.372;2023-02-20T09:01:34;99932.69;;;7.14;92.42
47430;BME280;33181;49.246;7.372;2023-02-20T09:03:59;99925.09;;;7.10;93.34
47430;BME280;33181;49.246;7.372;2023-02-20T09:06:27;99917.28;;;7.27;93.07
47430;BME280;33181;49.246;7.372;2023-02-20T09:08:55;99922.34;;;7.30;92.42
47430;BME280;33181;49.246;7.372;2023-02-20T09:11:20;99924.31;;;7.44;91.28
47430;BME280;33181;49.246;7.372;2023-02-20T09:13:47;99921.22;;;7.53;91.03
47430;BME280;33181;49.246;7.372;2023-02-20T09:16:18;99911.94;;;7.65;90.44
47430;BME280;33181;49.246;7.372;2023-02-20T09:18:44;99917.16;;;7.65;89.41
47430;BME280;33181;49.246;7.372;2023-02-20T09:21:12;99909.66;;;7.76;89.72
47430;BME280;33181;49.246;7.372;2023-02-20T09:23:39;99910.88;;;7.86;89.01
47430;BME280;33181;49.246;7.372;2023-02-20T09:26:05;99912.28;;;8.09;88.57
47430;BME280;33181;49.246;7.372;2023-02-20T09:28:31;99907.22;;;8.24;86.58
47430;BME280;33181;49.246;7.372;2023-02-20T09:30:57;99906.38;;;8.23;86.78
47430;BME280;33181;49.246;7.372;2023-02-20T09:33:27;99897.00;;;8.35;86.08
47430;BME280;33181;49.246;7.372;2023-02-20T09:35:54;99904.03;;;8.68;84.90
47430;BME280;33181;49.246;7.372;2023-02-20T09:38:21;99895.00;;;8.73;83.97
47430;BME280;33181;49.246;7.372;2023-02-20T09:40:50;99898.97;;;8.96;82.61
47430;BME280;33181;49.246;7.372;2023-02-20T09:43:56;99888.03;;;9.20;81.50
47430;BME280;33181;49.246;7.372;2023-02-20T09:46:25;99889.78;;;9.35;81.03
47430;BME280;33181;49.246;7.372;2023-02-20T09:49:16;99890.63;;;9.66;80.42
47430;BME280;33181;49.246;7.372;2023-02-20T09:52:00;99879.16;;;9.97;78.92
47430;BME280;33181;49.246;7.372;2023-02-20T09:54:40;99871.31;;;10.26;78.48
47430;BME280;33181;49.246;7.372;2023-02-20T09:57:18;99868.00;;;10.65;77.18
47430;BME280;33181;49.246;7.372;2023-02-20T10:00:13;99870.31;;;10.84;74.71
47430;BME280;33181;49.246;7.372;2023-02-20T10:02:43;99870.25;;;10.85;74.92
47430;BME280;33181;49.246;7.372;2023-02-20T10:05:24;99875.91;;;10.65;75.34
47430;BME280;33181;49.246;7.372;2023-02-20T10:07:52;99877.09;;;10.88;74.45
47430;BME280;33181;49.246;7.372;2023-02-20T10:13:36;99869.06;;;11.44;73.19
47430;BME280;33181;49.246;7.372;2023-02-20T10:16:31;99867.44;;;11.81;71.30
47430;BME280;33181;49.246;7.372;2023-02-20T10:21:58;99873.38;;;12.23;70.31
47430;BME280;33181;49.246;7.372;2023-02-20T10:28:17;99870.91;;;11.81;70.44
47430;BME280;33181;49.246;7.372;2023-02-20T10:36:45;99876.22;;;10.87;72.96
47430;BME280;33181;49.246;7.372;2023-02-20T10:39:16;99880.09;;;10.82;73.96
47430;BME280;33181;49.246;7.372;2023-02-20T10:42:13;99883.47;;;10.84;73.37
47430;BME280;33181;49.246;7.372;2023-02-20T10:45:02;99874.84;;;11.09;74.36
47430;BME280;33181;49.246;7.372;2023-02-20T10:50:28;99879.50;;;11.45;72.53
47430;BME280;33181;49.246;7.372;2023-02-20T10:53:27;99868.19;;;11.30;72.47
47430;BME280;33181;49.246;7.372;2023-02-20T11:01:43;99861.09;;;12.11;70.29
47430;BME280;33181;49.246;7.372;2023-02-20T11:04:35;99852.31;;;12.23;69.61
47430;BME280;33181;49.246;7.372;2023-02-20T11:07:09;99858.63;;;12.46;68.84
47430;BME280;33181;49.246;7.372;2023-02-20T11:09:36;99846.84;;;12.99;68.49
47430;BME280;33181;49.246;7.372;2023-02-20T11:12:02;99856.97;;;13.65;65.34
47430;BME280;33181;49.246;7.372;2023-02-20T11:14:33;99846.63;;;13.51;65.76
47430;BME280;33181;49.246;7.372;2023-02-20T11:17:12;99842.22;;;13.62;65.64
47430;BME280;33181;49.246;7.372;2023-02-20T11:19:58;99841.16;;;13.76;64.31
47430;BME280;33181;49.246;7.372;2023-02-20T11:25:41;99828.63;;;13.56;65.28
47430;BME280;33181;49.246;7.372;2023-02-20T11:28:26;99826.81;;;13.21;65.41
47430;BME280;33181;49.246;7.372;2023-02-20T11:31:05;99819.22;;;13.40;65.50
47430;BME280;33181;49.246;7.372;2023-02-20T11:33:41;99813.03;;;13.53;65.27
47430;BME280;33181;49.246;7.372;2023-02-20T11:36:22;99807.69;;;13.99;65.01
47430;BME280;33181;49.246;7.372;2023-02-20T11:39:03;99809.72;;;14.18;63.41
47430;BME280;33181;49.246;7.372;2023-02-20T11:41:38;99814.50;;;13.79;64.07
47430;BME280;33181;49.246;7.372;2023-02-20T11:44:23;99814.34;;;13.47;64.10
47430;BME280;33181;49.246;7.372;2023-02-20T11:49:46;99796.44;;;13.15;65.77
47430;BME280;33181;49.246;7.372;2023-02-20T11:52:22;99792.19;;;13.26;65.94
47430;BME280;33181;49.246;7.372;2023-02-20T11:55:19;99788.19;;;13.55;65.77
47430;BME280;33181;49.246;7.372;2023-02-20T11:57:46;99781.88;;;13.91;65.11
47430;BME280;33181;49.246;7.372;2023-02-20T12:00:24;99775.38;;;14.18;63.69
47430;BME280;33181;49.246;7.372;2023-02-20T12:03:12;99768.41;;;13.72;62.74
47430;BME280;33181;49.246;7.372;2023-02-20T12:05:45;99769.81;;;13.65;64.13
47430;BME280;33181;49.246;7.372;2023-02-20T12:08:41;99768.53;;;13.71;63.84
47430;BME280;33181;49.246;7.372;2023-02-20T12:11:14;99759.19;;;14.00;62.83
47430;BME280;33181;49.246;7.372;2023-02-20T12:13:44;99758.06;;;14.03;61.91
47430;BME280;33181;49.246;7.372;2023-02-20T12:22:27;99753.78;;;13.79;62.76
47430;BME280;33181;49.246;7.372;2023-02-20T12:25:51;99748.13;;;13.73;62.47
47430;BME280;33181;49.246;7.372;2023-02-20T12:28:48;99740.56;;;13.68;63.24
47430;BME280;33181;49.246;7.372;2023-02-20T12:31:55;99738.53;;;13.94;62.09
47430;BME280;33181;49.246;7.372;2023-02-20T12:43:27;99717.81;;;14.33;60.93
47430;BME280;33181;49.246;7.372;2023-02-20T12:46:30;99711.25;;;14.59;60.38
47430;BME280;33181;49.246;7.372;2023-02-20T12:49:21;99708.44;;;14.51;60.24
47430;BME280;33181;49.246;7.372;2023-02-20T12:52:54;99703.78;;;14.21;60.36
47430;BME280;33181;49.246;7.372;2023-02-20T13:00:54;99679.19;;;14.09;60.99
47430;BME280;33181;49.246;7.372;2023-02-20T13:11:46;99657.28;;;15.25;59.15
47430;BME280;33181;49.246;7.372;2023-02-20T13:20:21;99639.19;;;14.99;59.94
47430;BME280;33181;49.246;7.372;2023-02-20T13:25:50;99633.78;;;15.01;58.75
47430;BME280;33181;49.246;7.372;2023-02-20T13:28:48;99625.53;;;15.25;58.85
47430;BME280;33181;49.246;7.372;2023-02-20T13:31:34;99633.22;;;15.28;58.27
47430;BME280;33181;49.246;7.372;2023-02-20T13:36:38;99622.66;;;15.07;58.46
47430;BME280;33181;49.246;7.372;2023-02-20T13:44:40;99613.91;;;15.16;58.51
47430;BME280;33181;49.246;7.372;2023-02-20T13:55:21;99600.34;;;15.00;56.73
47430;BME280;33181;49.246;7.372;2023-02-20T13:57:53;99592.84;;;14.84;57.13
47430;BME280;33181;49.246;7.372;2023-02-20T14:02:46;99582.84;;;15.09;57.86
47430;BME280;33181;49.246;7.372;2023-02-20T14:05:20;99578.06;;;15.02;57.65
47430;BME280;33181;49.246;7.372;2023-02-20T14:07:47;99577.44;;;14.89;57.31
47430;BME280;33181;49.246;7.372;2023-02-20T14:10:17;99580.41;;;14.96;56.48
47430;BME280;33181;49.246;7.372;2023-02-20T14:12:46;99577.09;;;15.34;56.67
47430;BME280;33181;49.246;7.372;2023-02-20T14:15:18;99574.84;;;15.29;56.72
47430;BME280;33181;49.246;7.372;2023-02-20T14:17:43;99568.28;;;15.24;57.08
47430;BME280;33181;49.246;7.372;2023-02-20T14:20:34;99564.34;;;15.18;56.61
47430;BME280;33181;49.246;7.372;2023-02-20T14:23:17;99569.03;;;15.05;57.68
47430;BME280;33181;49.246;7.372;2023-02-20T14:25:53;99571.84;;;14.82;58.39
47430;BME280;33181;49.246;7.372;2023-02-20T14:28:19;99559.50;;;14.72;59.60
47430;BME280;33181;49.246;7.372;2023-02-20T14:30:45;99559.19;;;14.65;59.18
47430;BME280;33181;49.246;7.372;2023-02-20T14:33:23;99553.84;;;14.76;58.91
47430;BME280;33181;49.246;7.372;2023-02-20T14:36:27;99550.47;;;14.95;58.02
47430;BME280;33181;49.246;7.372;2023-02-20T14:39:30;99540.38;;;14.79;57.54
47430;BME280;33181;49.246;7.372;2023-02-20T14:42:01;99543.38;;;14.75;57.96
47430;BME280;33181;49.246;7.372;2023-02-20T14:44:30;99546.13;;;14.64;58.52
47430;BME280;33181;49.246;7.372;2023-02-20T14:49:34;99531.63;;;14.47;58.95
47430;BME280;33181;49.246;7.372;2023-02-20T14:52:22;99524.34;;;14.18;59.28
47430;BME280;33181;49.246;7.372;2023-02-20T14:55:04;99525.19;;;14.19;60.06
47430;BME280;33181;49.246;7.372;2023-02-20T14:57:31;99528.03;;;14.27;59.48
47430;BME280;33181;49.246;7.372;2023-02-20T15:02:52;99531.16;;;14.00;59.54
47430;BME280;33181;49.246;7.372;2023-02-20T15:05:31;99522.88;;;13.93;59.57
47430;BME280;33181;49.246;7.372;2023-02-20T15:08:26;99527.97;;;13.85;59.67
47430;BME280;33181;49.246;7.372;2023-02-20T15:10:55;99530.84;;;13.82;59.64
47430;BME280;33181;49.246;7.372;2023-02-20T15:13:25;99519.00;;;13.76;60.09
47430;BME280;33181;49.246;7.372;2023-02-20T15:16:17;99517.00;;;13.57;60.55
47430;BME280;33181;49.246;7.372;2023-02-20T15:18:46;99511.72;;;13.57;60.49
47430;BME280;33181;49.246;7.372;2023-02-20T15:21:14;99515.94;;;13.49;60.84
47430;BME280;33181;49.246;7.372;2023-02-20T15:23:45;99512.44;;;13.59;60.95
47430;BME280;33181;49.246;7.372;2023-02-20T15:26:32;99507.06;;;13.50;61.28
47430;BME280;33181;49.246;7.372;2023-02-20T15:31:59;99498.91;;;13.53;62.02
47430;BME280;33181;49.246;7.372;2023-02-20T15:34:37;99493.63;;;13.53;62.46
47430;BME280;33181;49.246;7.372;2023-02-20T15:37:24;99496.50;;;13.50;62.43
47430;BME280;33181;49.246;7.372;2023-02-20T15:39:52;99488.38;;;13.41;63.11